createdAt,value
2018-11-01T00:00:36.281Z,8.80
2018-11-01T00:03:08.239Z,8.70
2018-11-01T00:05:37.446Z,8.80
2018-11-01T00:08:08.362Z,8.80
2018-11-01T00:10:38.429Z,8.80
2018-11-01T00:13:27.255Z,8.80
2018-11-01T00:15:57.266Z,8.80
2018-11-01T00:18:28.618Z,8.80
2018-11-01T00:20:58.337Z,8.80
2018-11-01T00:23:29.687Z,8.80
2018-11-01T00:26:00.338Z,8.80
2018-11-01T00:28:30.427Z,8.70
2018-11-01T00:30:59.525Z,8.70
2018-11-01T00:33:30.103Z,8.70
2018-11-01T00:36:00.173Z,8.70
2018-11-01T00:38:29.313Z,8.70
2018-11-01T00:40:59.296Z,8.60
2018-11-01T00:43:29.773Z,8.60
2018-11-01T00:46:13.578Z,8.60
2018-11-01T00:48:42.674Z,8.50
2018-11-01T00:51:14.201Z,8.50
2018-11-01T00:53:43.859Z,8.50
2018-11-01T00:56:13.306Z,8.50
2018-11-01T00:58:43.123Z,8.40
2018-11-01T01:01:12.990Z,8.40
2018-11-01T01:03:43.577Z,8.40
2018-11-01T01:06:14.370Z,8.40
2018-11-01T01:08:43.452Z,8.40
2018-11-01T01:11:14.513Z,8.40
2018-11-01T01:13:45.313Z,8.40
2018-11-01T01:16:14.942Z,8.40
2018-11-01T01:18:46.205Z,8.40
2018-11-01T01:21:15.878Z,8.40
2018-11-01T01:23:46.638Z,8.40
2018-11-01T01:26:17.899Z,8.40
2018-11-01T01:28:49.177Z,8.50
2018-11-01T01:31:20.022Z,8.50
2018-11-01T01:33:52.197Z,8.60
2018-11-01T01:36:22.651Z,8.60
2018-11-01T01:38:53.012Z,8.60
2018-11-01T01:41:27.470Z,8.70
2018-11-01T01:43:58.676Z,8.70
2018-11-01T01:46:28.913Z,8.70
2018-11-01T01:48:58.664Z,8.70
2018-11-01T01:51:30.707Z,8.70
2018-11-01T01:54:00.824Z,8.70
2018-11-01T01:56:31.271Z,8.70
2018-11-01T01:59:04.777Z,8.80
2018-11-01T02:01:35.286Z,8.70
2018-11-01T02:04:08.057Z,8.70
2018-11-01T02:06:38.092Z,8.70
2018-11-01T02:09:12.521Z,8.70
2018-11-01T02:11:43.852Z,8.60
2018-11-01T02:14:13.663Z,8.60
2018-11-01T02:16:43.387Z,8.60
2018-11-01T02:19:14.048Z,8.60
2018-11-01T02:21:43.957Z,8.70
2018-11-01T02:24:14.671Z,8.60
2018-11-01T02:26:45.123Z,8.60
2018-11-01T02:29:15.242Z,8.60
2018-11-01T02:31:44.550Z,8.60
2018-11-01T02:34:17.806Z,8.60
2018-11-01T02:36:47.837Z,8.50
2018-11-01T02:39:17.434Z,8.50
2018-11-01T02:41:47.450Z,8.50
2018-11-01T02:44:17.578Z,8.50
2018-11-01T02:46:47.282Z,8.50
2018-11-01T02:49:18.700Z,8.40
2018-11-01T02:51:48.893Z,8.40
2018-11-01T02:54:19.887Z,8.40
2018-11-01T02:56:49.292Z,8.50
2018-11-01T02:59:20.452Z,8.50
2018-11-01T03:01:51.606Z,8.50
2018-11-01T03:04:21.722Z,8.60
2018-11-01T03:06:51.913Z,8.60
2018-11-01T03:09:21.850Z,8.70
2018-11-01T03:11:51.978Z,8.70
2018-11-01T03:14:21.813Z,8.80
2018-11-01T03:16:51.913Z,8.90
2018-11-01T03:19:21.845Z,8.90
2018-11-01T03:22:01.435Z,8.90
2018-11-01T03:24:32.676Z,8.90
2018-11-01T03:27:17.418Z,8.90
2018-11-01T03:29:48.218Z,8.90
2018-11-01T03:32:17.630Z,8.80
2018-11-01T03:34:46.857Z,8.80
2018-11-01T03:37:15.993Z,8.80
2018-11-01T03:39:46.023Z,8.80
2018-11-01T03:42:20.482Z,8.70
2018-11-01T03:44:50.750Z,8.70
2018-11-01T03:47:19.890Z,8.60
2018-11-01T03:49:51.010Z,8.50
2018-11-01T03:52:22.400Z,8.50
2018-11-01T03:54:51.566Z,8.40
2018-11-01T03:57:22.410Z,8.40
2018-11-01T03:59:51.706Z,8.40
2018-11-01T04:02:21.624Z,8.30
2018-11-01T04:04:50.902Z,8.30
2018-11-01T04:07:22.168Z,8.30
2018-11-01T04:09:52.506Z,8.30
2018-11-01T04:12:36.430Z,8.30
2018-11-01T04:15:07.738Z,8.30
2018-11-01T04:17:38.140Z,8.30
2018-11-01T04:20:09.034Z,8.40
2018-11-01T04:22:44.502Z,8.40
2018-11-01T04:25:14.675Z,8.40
2018-11-01T04:27:44.676Z,8.40
2018-11-01T04:30:14.179Z,8.40
2018-11-01T04:32:44.058Z,8.40
2018-11-01T04:35:16.017Z,8.50
2018-11-01T04:37:45.682Z,8.50
2018-11-01T04:42:59.620Z,8.60
2018-11-01T04:45:30.312Z,8.60
2018-11-01T04:48:02.421Z,8.70
2018-11-01T04:50:37.647Z,8.70
2018-11-01T05:10:03.480Z,8.60
2018-11-01T05:29:23.203Z,8.80
2018-11-01T05:48:48.696Z,9.10
2018-11-01T05:51:23.835Z,9.10
2018-11-01T05:54:03.578Z,9.10
2018-11-01T05:56:40.558Z,9.20
2018-11-01T05:59:34.678Z,9.20
2018-11-01T06:24:50.478Z,9.20
2018-11-01T06:58:36.928Z,9.10
2018-11-01T07:01:22.976Z,9.00
2018-11-01T07:04:01.799Z,9.00
2018-11-01T07:06:42.158Z,8.90
2018-11-01T07:09:22.217Z,8.80
2018-11-01T07:28:47.442Z,8.30
2018-11-01T07:31:27.485Z,8.30
2018-11-01T07:34:05.072Z,8.30
2018-11-01T07:36:42.052Z,8.30
2018-11-01T07:39:27.024Z,8.30
2018-11-01T07:51:50.454Z,8.30
2018-11-01T07:54:47.710Z,8.30
2018-11-01T07:57:31.819Z,8.30
2018-11-01T08:00:20.924Z,8.40
2018-11-01T08:19:42.308Z,8.60
2018-11-01T08:58:43.683Z,9.40
2018-11-01T09:04:21.446Z,9.50
2018-11-01T09:07:04.937Z,9.60
2018-11-01T09:35:01.494Z,10.30
2018-11-01T09:37:44.876Z,10.40
2018-11-01T09:40:28.668Z,10.40
2018-11-01T10:00:02.171Z,10.70
2018-11-01T10:25:15.784Z,11.00
2018-11-01T10:30:55.218Z,11.20
2018-11-01T10:56:30.230Z,11.50
2018-11-01T10:59:18.313Z,11.60
2018-11-01T11:02:06.519Z,11.60
2018-11-01T11:04:47.505Z,11.60
2018-11-01T11:19:00.456Z,12.10
2018-11-01T11:38:32.125Z,12.50
2018-11-01T11:41:16.167Z,12.50
2018-11-01T11:46:51.859Z,12.50
2018-11-01T11:49:47.891Z,12.50
2018-11-01T12:29:00.230Z,12.30
2018-11-01T12:43:17.308Z,12.20
2018-11-01T12:51:46.348Z,12.20
2018-11-01T12:54:38.376Z,12.20
2018-11-01T13:00:18.119Z,12.30
2018-11-01T13:03:05.880Z,12.30
2018-11-01T13:05:53.912Z,12.30
2018-11-01T13:08:37.957Z,12.30
2018-11-01T13:14:14.045Z,12.30
2018-11-01T13:16:59.311Z,12.20
2018-11-01T13:19:41.206Z,12.20
2018-11-01T13:44:43.729Z,11.70
2018-11-01T13:47:29.426Z,11.70
2018-11-01T13:53:03.240Z,11.70
2018-11-01T13:55:52.711Z,11.70
2018-11-01T14:01:23.675Z,11.70
2018-11-01T14:20:51.040Z,11.50
2018-11-01T14:40:18.713Z,11.00
2018-11-01T14:59:43.346Z,10.80
2018-11-01T15:19:10.742Z,10.70
2018-11-01T15:38:43.730Z,10.40
2018-11-01T15:41:27.629Z,10.40
2018-11-01T15:57:13.807Z,10.30
2018-11-01T16:10:36.223Z,10.20
2018-11-01T16:13:32.289Z,10.20
2018-11-01T16:16:35.642Z,10.20
2018-11-01T16:19:15.937Z,10.10
2018-11-01T16:38:47.061Z,10.10
2018-11-01T16:44:11.464Z,10.10
2018-11-01T16:49:33.719Z,10.10
2018-11-01T17:17:27.796Z,10.10
2018-11-01T17:20:04.336Z,10.10
2018-11-01T17:39:36.446Z,10.00
2018-11-01T17:58:59.377Z,10.00
2018-11-01T18:01:37.032Z,10.00
2018-11-01T18:04:16.411Z,10.00
2018-11-01T18:06:53.699Z,10.00
2018-11-01T18:09:33.753Z,10.00
2018-11-01T18:28:56.542Z,10.10
2018-11-01T18:31:34.427Z,10.10
2018-11-01T18:51:00.241Z,10.10
2018-11-01T19:10:27.608Z,10.30
2018-11-01T19:29:52.214Z,10.40
2018-11-01T19:49:12.820Z,10.30
2018-11-01T19:51:51.349Z,10.30
2018-11-01T19:54:27.546Z,10.30
2018-11-01T19:57:04.067Z,10.40
2018-11-01T19:59:41.050Z,10.40
2018-11-01T20:19:05.151Z,10.20
2018-11-01T20:21:44.883Z,10.20
2018-11-01T20:24:20.842Z,10.10
2018-11-01T20:26:59.976Z,10.00
2018-11-01T20:29:40.945Z,10.00
2018-11-01T20:49:02.472Z,9.90
2018-11-01T20:51:42.527Z,9.90
2018-11-01T20:54:19.824Z,9.90
2018-11-01T20:56:59.886Z,9.90
2018-11-01T20:59:38.691Z,9.90
2018-11-01T21:19:03.293Z,9.40
2018-11-01T21:21:39.354Z,9.30
2018-11-01T21:41:03.953Z,9.00
2018-11-01T22:00:28.875Z,8.90
2018-11-01T22:19:55.012Z,8.80
2018-11-01T22:22:32.744Z,8.80
2018-11-01T22:25:10.192Z,8.80
2018-11-01T22:27:51.202Z,8.80
2018-11-01T22:30:30.299Z,8.80
2018-11-01T22:36:44.469Z,8.80
2018-11-01T22:39:20.863Z,8.80
2018-11-01T22:58:40.521Z,8.70
2018-11-01T23:01:17.190Z,8.70
2018-11-01T23:20:38.721Z,8.80
2018-11-01T23:40:10.391Z,8.90
2018-11-01T23:59:33.418Z,9.00
